首页
METAR-TAF:

METAR-TAF

机场 :

维罗纳, 意大利

纬度: 45-23N, 经度: 010-52E, 海拔: 67米

当前天气观测

该预报发布于35分钟前的11:20 UTC
风速3节,风向西转西南,在南转西南西转西北之间变化
温度 9°C
湿度 76%
气压 1021 hPa
能見度: 6000
散云层高于3000英尺
多云层高于6000英尺

METAR: LIPX 261120Z 24003KT 200V290 6000 SCT030 BKN060 09/05 Q1021

时间: 12:55 (11:55 UTC)

预报

该预报发布于55分钟前的11:00 UTC
预报有效从26日的 12点(UTC)到 26日的 21点(UTC)
风速5节,风向多变
能見度: 4000
多云层高于4000英尺
轻雾

TAF: LIPX 261100Z 2612/2621 VRB05KT 4000 BR BKN040

超过4000个机场的气象观测和天气预报(METAR&TAF报告)。

可查询的气象台以黄色和红色小点在地图上表示。

将鼠标移到小点上方,可查看气象台名称。

然后点击查看天气观测和预报。

如需切换地图:点击带黑十字的绿色按钮放大地图;点击带横线的绿色按钮缩小地图;或者点击绿色箭头查看邻近地区的地图。


METAR-TAF: